Marshfield, Wisconsin
Current Conditions -  °F | °C
As of 6:54 AM on Wednesday 22 Oct 2014 (Local Time) from KMFI Reporting Station
Clear Clear  
Wind Chill: 23°   Ceiling: Unl
Heat Index: 30°   Visibility: 7mi
Dew Point: 28°   Wind: 7mph
Humidity: 92%   Direction: 90°E
Pressure: 30.32"   Gusts: NA
Location:  44.67°N, 90.17°W
Report Text: KMFI 221154Z AUTO 09006KT 7SM CLR M01/M02 A3032 RMK AO2 SLP280 I1001 I6001 T10111022 10022 21011 51011
Loading
Personal Weather Stations






























Interactive Weather Map
Tropical Storm Tracking
New forecast layout! Learn more

10-Day Weather Forecast

Advertisements
Track Severe Weather on mobile